ACH1641 SBRJ-SBSP
Flight info
| Callsign | ACH1641 |
|---|---|
| Flight time | N/A |
| Altitude | 30000 |
| Route | NAXOP UZ45 IBDAL |
| Aircraft | B738/M-SDE2E3FGHIRWXY/LB1 |
Departure
| Time | 2026-04-28 15:23 |
|---|---|
| Airport | Santos Dumont Airport (SBRJ) |
Arrival
| Time | N/A |
|---|---|
| Airport | Congonhas–Deputado Freitas Nobre Airport (SBSP) |
| Time | Latitude | Longitude | Altitude | Speed | Heading |
|---|---|---|---|---|---|
| 2026-04-28 15:04 | -22.91099 | -43.16585 | 29 ft | 0 kts | 266° |
| 2026-04-28 15:14 | -22.91098 | -43.16564 | 29 ft | 4 kts | 277° |
| 2026-04-28 15:14 | -22.91105 | -43.16537 | 29 ft | 4 kts | 304° |
| 2026-04-28 15:15 | -22.91107 | -43.16533 | 29 ft | 0 kts | 310° |
| 2026-04-28 15:19 | -22.91095 | -43.16538 | 29 ft | 6 kts | 352° |
| 2026-04-28 15:19 | -22.91030 | -43.16537 | 29 ft | 11 kts | 0° |
| 2026-04-28 15:20 | -22.90950 | -43.16540 | 29 ft | 11 kts | 358° |
| 2026-04-28 15:20 | -22.90873 | -43.16546 | 29 ft | 11 kts | 356° |
| 2026-04-28 15:20 | -22.90799 | -43.16551 | 29 ft | 11 kts | 356° |
| 2026-04-28 15:20 | -22.90726 | -43.16547 | 29 ft | 10 kts | 3° |
| 2026-04-28 15:21 | -22.90655 | -43.16548 | 29 ft | 10 kts | 354° |
| 2026-04-28 15:21 | -22.90587 | -43.16552 | 29 ft | 10 kts | 357° |
| 2026-04-28 15:21 | -22.90520 | -43.16555 | 29 ft | 10 kts | 8° |
| 2026-04-28 15:21 | -22.90495 | -43.16496 | 29 ft | 9 kts | 88° |
| 2026-04-28 15:22 | -22.90492 | -43.16425 | 27 ft | 10 kts | 88° |
| 2026-04-28 15:22 | -22.90485 | -43.16347 | 26 ft | 9 kts | 55° |
| 2026-04-28 15:22 | -22.90468 | -43.16310 | 27 ft | 6 kts | 147° |
| 2026-04-28 15:22 | -22.90503 | -43.16311 | 27 ft | 5 kts | 182° |
| 2026-04-28 15:23 | -22.90537 | -43.16312 | 27 ft | 6 kts | 178° |
| 2026-04-28 15:23 | -22.90781 | -43.16290 | 27 ft | 78 kts | 176° |
| 2026-04-28 15:23 | -22.91585 | -43.16234 | 69 ft | 148 kts | 175° |
| 2026-04-28 15:23 | -22.92660 | -43.16172 | 884 ft | 151 kts | 177° |
| 2026-04-28 15:24 | -22.93640 | -43.15850 | 1739 ft | 153 kts | 137° |
| 2026-04-28 15:24 | -22.94050 | -43.14802 | 2149 ft | 160 kts | 88° |
| 2026-04-28 15:24 | -22.94152 | -43.13615 | 2431 ft | 164 kts | 124° |
| 2026-04-28 15:24 | -22.95038 | -43.12859 | 2791 ft | 164 kts | 152° |
| 2026-04-28 15:25 | -22.96027 | -43.12191 | 3156 ft | 174 kts | 142° |
| 2026-04-28 15:25 | -22.97090 | -43.11311 | 3475 ft | 209 kts | 141° |
| 2026-04-28 15:25 | -22.98312 | -43.10293 | 3691 ft | 237 kts | 145° |
| 2026-04-28 15:25 | -22.99936 | -43.09706 | 3972 ft | 263 kts | 179° |
| 2026-04-28 15:26 | -23.01708 | -43.10324 | 4514 ft | 277 kts | 216° |
| 2026-04-28 15:26 | -23.03159 | -43.11715 | 5453 ft | 279 kts | 222° |
| 2026-04-28 15:26 | -23.04057 | -43.12589 | 6068 ft | 279 kts | 221° |
| 2026-04-28 15:26 | -23.05537 | -43.13990 | 6967 ft | 283 kts | 221° |
| 2026-04-28 15:27 | -23.07066 | -43.15362 | 7685 ft | 283 kts | 220° |
| 2026-04-28 15:27 | -23.08610 | -43.16728 | 8384 ft | 291 kts | 219° |
| 2026-04-28 15:27 | -23.10189 | -43.18107 | 9117 ft | 298 kts | 219° |
| 2026-04-28 15:27 | -23.11816 | -43.19525 | 9966 ft | 300 kts | 220° |
| 2026-04-28 15:28 | -23.13470 | -43.20968 | 10635 ft | 311 kts | 220° |
| 2026-04-28 15:28 | -23.15208 | -43.22486 | 10833 ft | 336 kts | 220° |
| 2026-04-28 15:28 | -23.17094 | -43.24132 | 11008 ft | 359 kts | 220° |
| 2026-04-28 15:28 | -23.19101 | -43.25884 | 11366 ft | 373 kts | 220° |
| 2026-04-28 15:29 | -23.21127 | -43.27651 | 11976 ft | 378 kts | 220° |
| 2026-04-28 15:29 | -23.22497 | -43.28845 | 12489 ft | 378 kts | 220° |
| 2026-04-28 15:29 | -23.23279 | -43.29526 | 12769 ft | 379 kts | 220° |
| 2026-04-28 15:29 | -23.25347 | -43.31331 | 13442 ft | 382 kts | 220° |
| 2026-04-28 15:30 | -23.27435 | -43.33155 | 14071 ft | 386 kts | 220° |
| 2026-04-28 15:30 | -23.29539 | -43.34993 | 14697 ft | 389 kts | 221° |
| 2026-04-28 15:30 | -23.31634 | -43.36829 | 15263 ft | 393 kts | 223° |
| 2026-04-28 15:30 | -23.33436 | -43.39060 | 15811 ft | 391 kts | 242° |
| 2026-04-28 15:31 | -23.34445 | -43.41748 | 16435 ft | 387 kts | 257° |
| 2026-04-28 15:31 | -23.35118 | -43.44598 | 17054 ft | 388 kts | 258° |
| 2026-04-28 15:31 | -23.35763 | -43.47478 | 17538 ft | 393 kts | 259° |
| 2026-04-28 15:31 | -23.36412 | -43.50385 | 18071 ft | 395 kts | 259° |
| 2026-04-28 15:32 | -23.37063 | -43.53267 | 18608 ft | 397 kts | 259° |
| 2026-04-28 15:32 | -23.37505 | -43.55202 | 18974 ft | 397 kts | 258° |
| 2026-04-28 15:32 | -23.38410 | -43.59122 | 19621 ft | 401 kts | 258° |
| 2026-04-28 15:32 | -23.39091 | -43.62050 | 20089 ft | 403 kts | 258° |
| 2026-04-28 15:33 | -23.39783 | -43.65014 | 20545 ft | 405 kts | 258° |
| 2026-04-28 15:33 | -23.40479 | -43.67997 | 20996 ft | 407 kts | 258° |
| 2026-04-28 15:33 | -23.41180 | -43.71000 | 21425 ft | 409 kts | 259° |
| 2026-04-28 15:33 | -23.41874 | -43.73980 | 21845 ft | 410 kts | 259° |
| 2026-04-28 15:34 | -23.42583 | -43.77024 | 22258 ft | 412 kts | 259° |
| 2026-04-28 15:34 | -23.43282 | -43.80031 | 22665 ft | 414 kts | 259° |
| 2026-04-28 15:34 | -23.43992 | -43.83088 | 23047 ft | 415 kts | 259° |
| 2026-04-28 15:34 | -23.44703 | -43.86150 | 23408 ft | 417 kts | 259° |
| 2026-04-28 15:35 | -23.45415 | -43.89222 | 23759 ft | 418 kts | 259° |
| 2026-04-28 15:35 | -23.46841 | -43.95386 | 24418 ft | 422 kts | 259° |
| 2026-04-28 15:35 | -23.47550 | -43.98468 | 24719 ft | 423 kts | 259° |
| 2026-04-28 15:36 | -23.48269 | -44.01602 | 25027 ft | 425 kts | 259° |
| 2026-04-28 15:36 | -23.48980 | -44.04701 | 25306 ft | 427 kts | 259° |
| 2026-04-28 15:36 | -23.49707 | -44.07869 | 25600 ft | 429 kts | 259° |
| 2026-04-28 15:36 | -23.50436 | -44.11048 | 25898 ft | 430 kts | 259° |
| 2026-04-28 15:37 | -23.51154 | -44.14184 | 26158 ft | 432 kts | 259° |
| 2026-04-28 15:37 | -23.51885 | -44.17380 | 26391 ft | 434 kts | 259° |
| 2026-04-28 15:37 | -23.52622 | -44.20592 | 26655 ft | 436 kts | 259° |
| 2026-04-28 15:37 | -23.53112 | -44.22725 | 26832 ft | 437 kts | 259° |
| 2026-04-28 15:38 | -23.54094 | -44.27005 | 27168 ft | 439 kts | 259° |
| 2026-04-28 15:38 | -23.54835 | -44.30241 | 27395 ft | 441 kts | 259° |
| 2026-04-28 15:38 | -23.55573 | -44.33464 | 27612 ft | 443 kts | 259° |
| 2026-04-28 15:38 | -23.56153 | -44.36003 | 27789 ft | 444 kts | 259° |
| 2026-04-28 15:39 | -23.56901 | -44.39278 | 28025 ft | 445 kts | 259° |
| 2026-04-28 15:39 | -23.57650 | -44.42561 | 28307 ft | 445 kts | 259° |
| 2026-04-28 15:39 | -23.58389 | -44.45799 | 28645 ft | 444 kts | 259° |
| 2026-04-28 15:39 | -23.59134 | -44.49068 | 29012 ft | 442 kts | 259° |
| 2026-04-28 15:40 | -23.59623 | -44.51219 | 29246 ft | 442 kts | 259° |
| 2026-04-28 15:40 | -23.60366 | -44.54488 | 29544 ft | 442 kts | 259° |
| 2026-04-28 15:40 | -23.61346 | -44.58806 | 29954 ft | 442 kts | 259° |
| 2026-04-28 15:40 | -23.62083 | -44.62061 | 30063 ft | 444 kts | 259° |
| 2026-04-28 15:41 | -23.63317 | -44.67512 | 30068 ft | 441 kts | 259° |
| 2026-04-28 15:41 | -23.64776 | -44.73965 | 30074 ft | 439 kts | 259° |
| 2026-04-28 15:42 | -23.66242 | -44.80466 | 30068 ft | 439 kts | 259° |
| 2026-04-28 15:42 | -23.67690 | -44.86904 | 30066 ft | 439 kts | 259° |
| 2026-04-28 15:43 | -23.69144 | -44.93382 | 30065 ft | 439 kts | 260° |
| 2026-04-28 15:43 | -23.70178 | -44.97995 | 30066 ft | 439 kts | 260° |
| 2026-04-28 15:44 | -23.71624 | -45.04455 | 30066 ft | 440 kts | 260° |
| 2026-04-28 15:44 | -23.73073 | -45.10946 | 30067 ft | 440 kts | 260° |
| 2026-04-28 15:45 | -23.74515 | -45.17418 | 30064 ft | 440 kts | 260° |
| 2026-04-28 15:45 | -23.75966 | -45.23944 | 29662 ft | 445 kts | 260° |
| 2026-04-28 15:46 | -23.76698 | -45.27231 | 28938 ft | 443 kts | 260° |
| 2026-04-28 15:46 | -23.77421 | -45.30477 | 28092 ft | 443 kts | 259° |
| 2026-04-28 15:46 | -23.78151 | -45.33754 | 27445 ft | 438 kts | 259° |
| 2026-04-28 15:46 | -23.78858 | -45.36930 | 26809 ft | 433 kts | 259° |
| 2026-04-28 15:47 | -23.79565 | -45.40121 | 26174 ft | 428 kts | 260° |
| 2026-04-28 15:47 | -23.80020 | -45.43299 | 25713 ft | 416 kts | 268° |
| 2026-04-28 15:47 | -23.80192 | -45.46410 | 25337 ft | 405 kts | 270° |
| 2026-04-28 15:47 | -23.80314 | -45.49488 | 24950 ft | 408 kts | 270° |
| 2026-04-28 15:48 | -23.80420 | -45.52581 | 24555 ft | 413 kts | 270° |
| 2026-04-28 15:48 | -23.80540 | -45.55736 | 24140 ft | 410 kts | 270° |
| 2026-04-28 15:48 | -23.80671 | -45.58792 | 23733 ft | 405 kts | 269° |
| 2026-04-28 15:48 | -23.80814 | -45.61855 | 23337 ft | 401 kts | 269° |
| 2026-04-28 15:49 | -23.80964 | -45.64904 | 22940 ft | 398 kts | 269° |
| 2026-04-28 15:49 | -23.81113 | -45.67890 | 22559 ft | 396 kts | 269° |
| 2026-04-28 15:49 | -23.81264 | -45.70875 | 22168 ft | 394 kts | 269° |
| 2026-04-28 15:49 | -23.81416 | -45.73873 | 21787 ft | 394 kts | 269° |
| 2026-04-28 15:50 | -23.81566 | -45.76869 | 21399 ft | 394 kts | 269° |
| 2026-04-28 15:50 | -23.81694 | -45.79854 | 21008 ft | 393 kts | 269° |
| 2026-04-28 15:50 | -23.81840 | -45.82800 | 20630 ft | 393 kts | 269° |
| 2026-04-28 15:50 | -23.81995 | -45.85786 | 20243 ft | 393 kts | 269° |
| 2026-04-28 15:51 | -23.82150 | -45.88782 | 19852 ft | 393 kts | 269° |
| 2026-04-28 15:51 | -23.82300 | -45.91730 | 19474 ft | 392 kts | 269° |
| 2026-04-28 15:51 | -23.82448 | -45.94698 | 19092 ft | 391 kts | 269° |
| 2026-04-28 15:51 | -23.82594 | -45.97665 | 18694 ft | 389 kts | 269° |
| 2026-04-28 15:52 | -23.82738 | -46.00613 | 18321 ft | 387 kts | 269° |
| 2026-04-28 15:52 | -23.82881 | -46.03552 | 17940 ft | 386 kts | 269° |
| 2026-04-28 15:52 | -23.83020 | -46.06445 | 17565 ft | 384 kts | 269° |
| 2026-04-28 15:52 | -23.83160 | -46.09360 | 17186 ft | 382 kts | 269° |
| 2026-04-28 15:53 | -23.83299 | -46.12249 | 16809 ft | 381 kts | 269° |
| 2026-04-28 15:53 | -23.83437 | -46.15144 | 16434 ft | 379 kts | 269° |
| 2026-04-28 15:53 | -23.83572 | -46.17987 | 16061 ft | 377 kts | 269° |
| 2026-04-28 15:53 | -23.83708 | -46.20861 | 15693 ft | 376 kts | 269° |
| 2026-04-28 15:54 | -23.83843 | -46.23704 | 15312 ft | 373 kts | 269° |
| 2026-04-28 15:54 | -23.83977 | -46.26526 | 14972 ft | 371 kts | 269° |
| 2026-04-28 15:54 | -23.84109 | -46.29308 | 14588 ft | 371 kts | 269° |
| 2026-04-28 15:54 | -23.84242 | -46.32121 | 14231 ft | 369 kts | 269° |
| 2026-04-28 15:55 | -23.84374 | -46.34943 | 13864 ft | 369 kts | 268° |
| 2026-04-28 15:55 | -23.84504 | -46.37713 | 13530 ft | 366 kts | 269° |
| 2026-04-28 15:55 | -23.84634 | -46.40476 | 13149 ft | 362 kts | 268° |
| 2026-04-28 15:55 | -23.84760 | -46.43201 | 12800 ft | 362 kts | 268° |
| 2026-04-28 15:56 | -23.84887 | -46.45962 | 12421 ft | 361 kts | 268° |
| 2026-04-28 15:56 | -23.85011 | -46.48661 | 12084 ft | 355 kts | 268° |
| 2026-04-28 15:56 | -23.84890 | -46.50975 | 13646 ft | 242 kts | 308° |